createdAt,value
2023-05-17T00:00:32.045Z,9.40
2023-05-17T00:02:58.545Z,9.42
2023-05-17T00:05:25.170Z,9.42
2023-05-17T00:07:51.822Z,9.39
2023-05-17T00:10:18.312Z,9.31
2023-05-17T00:12:44.798Z,9.32
2023-05-17T00:15:11.456Z,9.29
2023-05-17T00:17:38.114Z,9.29
2023-05-17T00:20:05.730Z,9.24
2023-05-17T00:22:32.141Z,9.09
2023-05-17T00:24:58.549Z,8.98
2023-05-17T00:27:25.182Z,8.95
2023-05-17T00:29:51.611Z,8.90
2023-05-17T00:32:18.010Z,9.01
2023-05-17T00:34:45.015Z,9.00
2023-05-17T00:37:11.477Z,8.98
2023-05-17T00:39:37.904Z,8.93
2023-05-17T00:42:04.606Z,8.87
2023-05-17T00:44:31.136Z,8.87
2023-05-17T00:46:59.687Z,8.83
2023-05-17T00:49:26.811Z,8.80
2023-05-17T00:51:53.401Z,8.76
2023-05-17T00:54:19.778Z,8.60
2023-05-17T00:56:46.396Z,8.60
2023-05-17T00:59:13.523Z,8.50
2023-05-17T01:01:43.654Z,8.48
2023-05-17T01:04:10.689Z,8.42
2023-05-17T01:06:37.274Z,8.47
2023-05-17T01:09:07.120Z,8.45
2023-05-17T01:12:19.117Z,8.55
2023-05-17T01:14:52.118Z,8.51
2023-05-17T01:17:25.710Z,8.60
2023-05-17T01:20:01.816Z,8.57
2023-05-17T01:22:47.073Z,8.41
2023-05-17T01:25:23.314Z,8.40
2023-05-17T01:27:49.944Z,8.40
2023-05-17T01:30:18.096Z,8.30
2023-05-17T01:32:44.609Z,8.36
2023-05-17T01:35:12.052Z,8.39
2023-05-17T01:37:39.362Z,8.37
2023-05-17T01:40:07.262Z,8.44
2023-05-17T01:42:33.957Z,8.40
2023-05-17T01:45:07.722Z,8.42
2023-05-17T01:47:47.996Z,8.38
2023-05-17T01:50:15.459Z,8.47
2023-05-17T01:52:46.342Z,8.47
2023-05-17T01:55:21.812Z,8.53
2023-05-17T01:57:49.131Z,8.49
2023-05-17T02:00:15.943Z,8.44
2023-05-17T02:02:42.823Z,8.49
2023-05-17T02:05:09.780Z,8.42
2023-05-17T02:07:36.266Z,8.43
2023-05-17T02:10:03.627Z,8.40
2023-05-17T02:12:30.237Z,8.39
2023-05-17T02:14:56.667Z,8.40
2023-05-17T02:17:23.131Z,8.37
2023-05-17T02:19:49.601Z,8.38
2023-05-17T02:22:15.985Z,8.34
2023-05-17T02:24:42.398Z,8.36
2023-05-17T02:27:08.988Z,8.36
2023-05-17T02:29:35.411Z,8.34
2023-05-17T02:32:01.972Z,8.33
2023-05-17T02:34:28.449Z,8.26
2023-05-17T02:36:54.887Z,8.27
2023-05-17T02:39:21.292Z,8.29
2023-05-17T02:41:47.893Z,8.24
2023-05-17T02:44:14.299Z,8.25
2023-05-17T02:46:41.854Z,8.13
2023-05-17T02:49:08.261Z,8.05
2023-05-17T02:51:34.675Z,8.11
2023-05-17T02:54:01.044Z,8.10
2023-05-17T02:56:27.677Z,8.02
2023-05-17T02:58:55.404Z,7.94
2023-05-17T03:01:21.865Z,7.92
2023-05-17T03:03:49.010Z,7.93
2023-05-17T03:06:15.629Z,7.93
2023-05-17T03:08:42.017Z,7.90
2023-05-17T03:11:08.599Z,7.93
2023-05-17T03:13:34.985Z,8.00
2023-05-17T03:16:01.368Z,8.04
2023-05-17T03:18:27.918Z,8.11
2023-05-17T03:20:57.348Z,8.06
2023-05-17T03:23:23.814Z,8.08
2023-05-17T03:25:50.329Z,8.13
2023-05-17T03:28:16.721Z,8.09
2023-05-17T03:30:43.142Z,7.98
2023-05-17T03:33:09.704Z,7.97
2023-05-17T03:35:36.198Z,8.00
2023-05-17T03:38:02.666Z,8.01
2023-05-17T03:40:29.265Z,8.12
2023-05-17T03:42:55.683Z,8.13
2023-05-17T03:45:22.136Z,8.14
2023-05-17T03:47:48.588Z,8.18
2023-05-17T03:50:15.003Z,8.15
2023-05-17T03:52:42.027Z,8.06
2023-05-17T03:55:09.434Z,7.90
2023-05-17T03:57:35.823Z,7.99
2023-05-17T04:00:02.225Z,7.98
2023-05-17T04:02:29.011Z,7.96
2023-05-17T04:04:55.516Z,7.97
2023-05-17T04:07:21.961Z,7.96
2023-05-17T04:09:48.624Z,8.00
2023-05-17T04:12:15.107Z,8.07
2023-05-17T04:14:41.504Z,8.11
2023-05-17T04:17:08.092Z,8.18
2023-05-17T04:19:37.448Z,8.25
2023-05-17T04:22:06.979Z,8.23
2023-05-17T04:24:33.592Z,8.16
2023-05-17T04:27:02.691Z,8.27
2023-05-17T04:29:29.979Z,8.37
2023-05-17T04:31:56.392Z,8.38
2023-05-17T04:34:23.892Z,8.47
2023-05-17T04:36:50.654Z,8.40
2023-05-17T04:39:18.253Z,8.49
2023-05-17T04:41:44.643Z,8.55
2023-05-17T04:44:11.262Z,8.70
2023-05-17T04:46:37.959Z,8.72
2023-05-17T04:49:04.541Z,8.77
2023-05-17T04:51:31.175Z,8.81
2023-05-17T04:54:00.936Z,8.81
2023-05-17T04:56:29.129Z,8.86
2023-05-17T04:58:55.631Z,8.96
2023-05-17T05:01:22.198Z,9.05
2023-05-17T05:03:48.638Z,8.94
2023-05-17T05:06:16.254Z,8.96
2023-05-17T05:08:42.857Z,9.06
2023-05-17T05:11:09.257Z,9.09
2023-05-17T05:13:38.150Z,9.10
2023-05-17T05:16:06.227Z,9.03
2023-05-17T05:18:32.780Z,9.16
2023-05-17T05:20:59.401Z,9.21
2023-05-17T05:23:25.856Z,9.25
2023-05-17T05:25:52.292Z,9.16
2023-05-17T05:28:18.796Z,9.27
2023-05-17T05:30:45.414Z,9.34
2023-05-17T05:33:11.932Z,9.36
2023-05-17T05:35:38.500Z,9.38
2023-05-17T05:38:05.005Z,9.47
2023-05-17T05:40:31.671Z,9.51
2023-05-17T05:42:58.526Z,9.53
2023-05-17T05:45:25.169Z,9.47
2023-05-17T05:47:51.692Z,9.56
2023-05-17T05:50:18.272Z,9.57
2023-05-17T05:52:44.863Z,9.59
2023-05-17T05:55:11.406Z,9.62
2023-05-17T05:57:37.831Z,9.67
2023-05-17T06:00:04.965Z,9.70
2023-05-17T06:02:31.585Z,9.54
2023-05-17T06:04:57.991Z,9.53
2023-05-17T06:07:24.439Z,9.59
2023-05-17T06:09:50.867Z,9.54
2023-05-17T06:12:17.814Z,9.51
2023-05-17T06:14:44.405Z,9.54
2023-05-17T06:17:10.789Z,9.58
2023-05-17T06:19:37.404Z,9.61
2023-05-17T06:22:04.148Z,9.64
2023-05-17T06:24:30.556Z,9.66
2023-05-17T06:26:59.755Z,9.81
2023-05-17T06:29:26.144Z,9.96
2023-05-17T06:31:52.572Z,9.93
2023-05-17T06:34:19.033Z,9.97
2023-05-17T06:36:45.421Z,10.03
2023-05-17T06:39:11.800Z,10.14
2023-05-17T06:41:38.453Z,10.22
2023-05-17T06:44:05.042Z,10.17
2023-05-17T06:46:31.417Z,10.16
2023-05-17T06:48:58.317Z,10.19
2023-05-17T06:51:24.939Z,10.37
2023-05-17T06:53:51.404Z,10.42
2023-05-17T06:56:17.817Z,10.50
2023-05-17T06:58:44.235Z,10.54
2023-05-17T07:01:10.654Z,10.52
2023-05-17T07:03:37.217Z,10.71
2023-05-17T07:06:03.936Z,10.74
2023-05-17T07:08:30.438Z,10.70
2023-05-17T07:10:56.868Z,10.66
2023-05-17T07:13:23.262Z,10.62
2023-05-17T07:15:49.663Z,10.56
2023-05-17T07:18:16.678Z,10.56
2023-05-17T07:20:43.251Z,10.62
2023-05-17T07:23:09.742Z,10.75
2023-05-17T07:25:38.935Z,10.72
2023-05-17T07:28:05.531Z,10.71
2023-05-17T07:30:31.961Z,10.69
2023-05-17T07:32:58.625Z,10.70
2023-05-17T07:35:25.060Z,10.70
2023-05-17T07:37:51.441Z,10.66
2023-05-17T07:40:18.306Z,10.71
2023-05-17T07:42:45.091Z,10.87
2023-05-17T07:45:11.697Z,10.91
2023-05-17T07:47:38.168Z,10.89
2023-05-17T07:50:05.140Z,10.84
2023-05-17T07:52:31.521Z,10.89
2023-05-17T07:54:58.000Z,10.86
2023-05-17T07:57:24.662Z,10.99
2023-05-17T07:59:51.055Z,11.03
2023-05-17T08:02:17.521Z,11.19
2023-05-17T08:04:43.972Z,11.31
2023-05-17T08:07:10.472Z,11.32
2023-05-17T08:09:36.970Z,11.35
2023-05-17T08:12:03.469Z,11.40
2023-05-17T08:14:29.984Z,11.46
2023-05-17T08:16:56.403Z,11.42
2023-05-17T08:19:23.025Z,11.38
2023-05-17T08:21:49.616Z,11.37
2023-05-17T08:24:17.549Z,11.38
2023-05-17T08:26:43.985Z,11.48
2023-05-17T08:29:10.423Z,11.62
2023-05-17T08:31:36.832Z,11.51
2023-05-17T08:34:03.581Z,11.54
2023-05-17T08:36:30.077Z,11.58
2023-05-17T08:38:56.481Z,11.78
2023-05-17T08:41:23.000Z,11.96
2023-05-17T08:43:49.877Z,11.94
2023-05-17T08:46:18.484Z,11.96
2023-05-17T08:48:44.969Z,12.09
2023-05-17T08:51:12.121Z,12.16
2023-05-17T08:53:38.770Z,12.16
2023-05-17T08:56:07.152Z,12.14
2023-05-17T08:58:51.677Z,12.32
2023-05-17T09:01:23.637Z,12.32
2023-05-17T09:03:52.000Z,12.26
2023-05-17T09:06:21.495Z,12.41
2023-05-17T09:08:48.252Z,12.42
2023-05-17T09:11:19.486Z,12.64
2023-05-17T09:13:45.879Z,12.61
2023-05-17T09:16:16.316Z,12.53
2023-05-17T09:18:42.932Z,12.65
2023-05-17T09:21:09.850Z,12.83
2023-05-17T09:23:37.913Z,12.69
2023-05-17T09:26:06.327Z,12.59
2023-05-17T09:28:38.289Z,12.69
2023-05-17T09:31:13.481Z,12.69
2023-05-17T09:33:47.028Z,12.61
2023-05-17T09:36:20.868Z,12.53
2023-05-17T09:38:53.572Z,12.53
2023-05-17T09:41:20.250Z,12.69
2023-05-17T09:43:46.731Z,12.71
2023-05-17T09:46:13.323Z,12.54
2023-05-17T09:48:39.894Z,12.73
2023-05-17T09:51:07.229Z,12.84
2023-05-17T09:53:38.290Z,12.75
2023-05-17T09:56:05.539Z,12.85
2023-05-17T09:58:32.136Z,12.96
2023-05-17T10:00:59.973Z,13.31
2023-05-17T10:03:34.228Z,13.59
2023-05-17T10:06:16.592Z,13.75
2023-05-17T10:08:58.474Z,13.43
2023-05-17T10:11:28.384Z,13.39
2023-05-17T10:14:11.450Z,13.19
2023-05-17T10:16:38.379Z,13.11
2023-05-17T10:19:05.317Z,13.19
2023-05-17T10:21:32.182Z,13.01
2023-05-17T10:23:59.642Z,12.92
2023-05-17T10:26:26.081Z,12.95
2023-05-17T10:28:54.196Z,13.06
2023-05-17T10:31:21.041Z,13.07
2023-05-17T10:33:47.603Z,13.38
2023-05-17T10:36:14.988Z,13.56
2023-05-17T10:38:42.804Z,13.57
2023-05-17T10:41:11.590Z,13.72
2023-05-17T10:43:38.111Z,13.61
2023-05-17T10:46:04.555Z,13.76
2023-05-17T10:48:31.315Z,13.65
2023-05-17T10:51:01.707Z,14.15
2023-05-17T10:53:28.500Z,14.21
2023-05-17T10:55:55.084Z,14.62
2023-05-17T10:58:22.468Z,14.60
2023-05-17T11:00:50.147Z,14.45
2023-05-17T11:03:34.504Z,14.55
2023-05-17T11:06:25.389Z,14.46
2023-05-17T11:09:09.664Z,14.87
2023-05-17T11:11:36.310Z,15.57
2023-05-17T11:14:03.684Z,15.88
2023-05-17T11:16:37.399Z,16.36
2023-05-17T11:19:11.709Z,16.49
2023-05-17T11:21:48.087Z,17.26
2023-05-17T11:24:26.718Z,17.22
2023-05-17T11:26:53.311Z,17.31
2023-05-17T11:29:19.823Z,17.76
2023-05-17T11:31:46.295Z,17.66
2023-05-17T11:34:12.976Z,17.72
2023-05-17T11:36:53.057Z,16.61
2023-05-17T11:39:21.217Z,15.97
2023-05-17T11:41:49.039Z,16.60
2023-05-17T11:44:34.932Z,17.76
2023-05-17T11:47:05.812Z,17.17
2023-05-17T11:49:36.140Z,17.13
2023-05-17T11:52:06.416Z,17.12
2023-05-17T11:54:33.106Z,16.86
2023-05-17T11:56:59.957Z,17.54
2023-05-17T11:59:26.477Z,17.84
2023-05-17T12:01:53.126Z,18.62
2023-05-17T12:04:26.393Z,18.60
2023-05-17T12:06:53.749Z,18.89
2023-05-17T12:09:21.132Z,19.14
2023-05-17T12:11:47.888Z,17.72
2023-05-17T12:14:21.916Z,17.22
2023-05-17T12:16:56.379Z,18.12
2023-05-17T12:19:30.048Z,18.67
2023-05-17T12:22:12.225Z,18.14
2023-05-17T12:24:39.909Z,17.63
2023-05-17T12:27:06.427Z,18.04
2023-05-17T12:29:32.889Z,18.35
2023-05-17T12:31:59.624Z,19.16
2023-05-17T12:34:26.142Z,18.29
2023-05-17T12:36:53.195Z,17.54
2023-05-17T12:39:23.875Z,17.33
2023-05-17T12:41:53.956Z,17.86
2023-05-17T12:44:20.606Z,19.00
2023-05-17T12:46:59.055Z,18.46
2023-05-17T12:49:25.481Z,18.45
2023-05-17T12:51:54.861Z,17.53
2023-05-17T12:54:24.271Z,17.28
2023-05-17T12:56:50.873Z,18.46
2023-05-17T12:59:17.720Z,19.04
2023-05-17T13:01:44.845Z,19.59
2023-05-17T13:04:12.019Z,18.30
2023-05-17T13:06:58.151Z,19.10
2023-05-17T13:09:25.743Z,18.32
2023-05-17T13:11:59.594Z,17.35
2023-05-17T13:14:47.170Z,17.75
2023-05-17T13:17:27.223Z,18.15
2023-05-17T13:19:56.484Z,18.31
2023-05-17T13:22:25.037Z,17.97
2023-05-17T13:24:51.482Z,18.15
2023-05-17T13:27:18.290Z,18.45
2023-05-17T13:29:44.862Z,18.59
2023-05-17T13:32:12.354Z,18.08
2023-05-17T13:34:39.194Z,17.72
2023-05-17T13:37:08.594Z,17.29
2023-05-17T13:39:36.993Z,17.76
2023-05-17T13:42:03.619Z,19.04
2023-05-17T13:44:30.073Z,18.45
2023-05-17T13:46:56.554Z,18.05
2023-05-17T13:49:22.987Z,17.48
2023-05-17T13:51:49.450Z,18.39
2023-05-17T13:54:15.942Z,19.31
2023-05-17T13:56:42.412Z,19.16
2023-05-17T13:59:08.810Z,19.12
2023-05-17T14:01:35.649Z,19.37
2023-05-17T14:04:02.121Z,19.79
2023-05-17T14:06:28.832Z,20.27
2023-05-17T14:08:57.311Z,19.90
2023-05-17T14:11:23.776Z,19.97
2023-05-17T14:13:50.249Z,19.96
2023-05-17T14:16:16.865Z,19.84
2023-05-17T14:18:43.326Z,20.05
2023-05-17T14:21:10.040Z,20.55
2023-05-17T14:23:36.683Z,20.39
2023-05-17T14:26:07.001Z,19.29
2023-05-17T14:28:33.925Z,19.48
2023-05-17T14:31:00.374Z,19.00
2023-05-17T14:33:28.242Z,18.62
2023-05-17T14:35:54.767Z,19.37
2023-05-17T14:38:23.211Z,20.13
2023-05-17T14:40:49.662Z,20.06
2023-05-17T14:43:16.582Z,19.09
2023-05-17T14:45:43.181Z,18.60
2023-05-17T14:48:09.655Z,18.71
2023-05-17T14:50:36.331Z,19.62
2023-05-17T14:53:02.832Z,19.97
2023-05-17T14:55:30.056Z,20.04
2023-05-17T14:57:57.949Z,20.50
2023-05-17T15:00:24.881Z,20.47
2023-05-17T15:02:51.317Z,20.27
2023-05-17T15:05:18.589Z,19.97
2023-05-17T15:07:45.317Z,19.44
2023-05-17T15:10:12.990Z,18.67
2023-05-17T15:12:39.409Z,18.80
2023-05-17T15:15:06.747Z,19.94
2023-05-17T15:17:33.774Z,20.08
2023-05-17T15:20:00.341Z,19.63
2023-05-17T15:22:27.108Z,19.78
2023-05-17T15:24:54.330Z,20.81
2023-05-17T15:27:20.850Z,19.97
2023-05-17T15:29:47.290Z,21.09
2023-05-17T15:32:13.729Z,20.98
2023-05-17T15:34:40.200Z,22.30
2023-05-17T15:37:06.934Z,22.47
2023-05-17T15:39:33.336Z,20.83
2023-05-17T15:41:59.812Z,18.98
2023-05-17T15:44:26.425Z,19.47
2023-05-17T15:46:52.847Z,18.18
2023-05-17T15:49:19.317Z,19.80
2023-05-17T15:51:45.903Z,20.37
2023-05-17T15:54:12.340Z,19.89
2023-05-17T15:56:38.808Z,18.83
2023-05-17T15:59:05.653Z,20.03
2023-05-17T16:01:32.260Z,19.11
2023-05-17T16:03:58.712Z,21.10
2023-05-17T16:06:25.288Z,21.87
2023-05-17T16:08:51.811Z,22.14
2023-05-17T16:11:18.230Z,22.35
2023-05-17T16:13:44.683Z,22.36
2023-05-17T16:16:13.291Z,23.03
2023-05-17T16:18:39.841Z,22.55
2023-05-17T16:21:06.588Z,19.05
2023-05-17T16:23:33.012Z,18.30
2023-05-17T16:25:59.876Z,20.48
2023-05-17T16:28:26.362Z,21.74
2023-05-17T16:30:52.921Z,22.16
2023-05-17T16:33:22.356Z,20.16
2023-05-17T16:35:48.966Z,22.28
2023-05-17T16:38:15.592Z,21.76
2023-05-17T16:40:42.196Z,20.90
2023-05-17T16:43:08.902Z,18.32
2023-05-17T16:45:35.341Z,17.52
2023-05-17T16:48:01.894Z,17.35
2023-05-17T16:50:28.546Z,17.75
2023-05-17T16:52:55.156Z,17.93
2023-05-17T16:55:21.675Z,17.99
2023-05-17T16:57:48.124Z,17.93
2023-05-17T17:00:14.985Z,17.83
2023-05-17T17:02:41.445Z,17.87
2023-05-17T17:05:08.303Z,17.74
2023-05-17T17:07:34.744Z,17.60
2023-05-17T17:10:01.267Z,17.46
2023-05-17T17:12:27.799Z,17.57
2023-05-17T17:14:54.232Z,17.30
2023-05-17T17:17:20.700Z,17.10
2023-05-17T17:19:47.460Z,17.20
2023-05-17T17:22:14.688Z,16.93
2023-05-17T17:24:41.366Z,16.88
2023-05-17T17:27:08.206Z,16.75
2023-05-17T17:29:34.703Z,16.50
2023-05-17T17:32:02.150Z,16.26
2023-05-17T17:34:28.792Z,16.16
2023-05-17T17:36:55.293Z,15.95
2023-05-17T17:39:21.771Z,15.83
2023-05-17T17:41:48.415Z,15.76
2023-05-17T17:44:14.811Z,15.55
2023-05-17T17:46:41.432Z,15.48
2023-05-17T17:49:07.909Z,15.45
2023-05-17T17:51:34.306Z,15.34
2023-05-17T17:54:00.872Z,15.04
2023-05-17T17:56:27.349Z,14.91
2023-05-17T17:58:55.885Z,14.91
2023-05-17T18:01:23.057Z,14.88
2023-05-17T18:03:49.573Z,14.79
2023-05-17T18:06:16.171Z,14.73
2023-05-17T18:08:42.645Z,14.65
2023-05-17T18:11:09.119Z,14.60
2023-05-17T18:13:35.646Z,14.55
2023-05-17T18:16:02.194Z,14.18
2023-05-17T18:18:28.814Z,14.08
2023-05-17T18:20:55.364Z,14.07
2023-05-17T18:23:21.768Z,13.89
2023-05-17T18:25:50.591Z,13.89
2023-05-17T18:28:19.844Z,13.86
2023-05-17T18:30:53.264Z,13.72
2023-05-17T18:33:19.688Z,13.65
2023-05-17T18:35:46.263Z,13.50
2023-05-17T18:38:12.876Z,13.46
2023-05-17T18:40:39.320Z,13.33
2023-05-17T18:43:05.792Z,13.27
2023-05-17T18:45:36.170Z,13.27
2023-05-17T18:48:03.467Z,13.19
2023-05-17T18:50:30.311Z,13.11
2023-05-17T18:52:57.307Z,13.12
2023-05-17T18:55:23.815Z,13.08
2023-05-17T18:57:50.226Z,13.06
2023-05-17T19:00:16.907Z,12.90
2023-05-17T19:02:43.330Z,12.83
2023-05-17T19:05:09.754Z,12.71
2023-05-17T19:07:36.181Z,12.63
2023-05-17T19:10:04.316Z,12.58
2023-05-17T19:12:30.749Z,12.56
2023-05-17T19:14:57.286Z,12.49
2023-05-17T19:17:23.797Z,12.46
2023-05-17T19:19:50.335Z,12.29
2023-05-17T19:22:16.910Z,12.23
2023-05-17T19:24:43.326Z,12.29
2023-05-17T19:27:10.548Z,12.18
2023-05-17T19:29:36.989Z,12.11
2023-05-17T19:32:04.522Z,12.12
2023-05-17T19:34:31.191Z,12.05
2023-05-17T19:36:58.723Z,11.85
2023-05-17T19:39:25.546Z,11.86
2023-05-17T19:41:52.015Z,11.86
2023-05-17T19:44:18.459Z,11.72
2023-05-17T19:46:44.955Z,11.68
2023-05-17T19:49:12.358Z,11.62
2023-05-17T19:51:39.152Z,11.53
2023-05-17T19:54:06.055Z,11.50
2023-05-17T19:56:32.492Z,11.48
2023-05-17T19:58:59.008Z,11.32
2023-05-17T20:01:25.526Z,11.34
2023-05-17T20:03:52.091Z,11.28
2023-05-17T20:06:18.711Z,11.23
2023-05-17T20:08:45.159Z,11.21
2023-05-17T20:11:11.561Z,11.18
2023-05-17T20:13:40.900Z,11.13
2023-05-17T20:16:12.562Z,11.05
2023-05-17T20:18:43.160Z,10.96
2023-05-17T20:21:11.176Z,10.99
2023-05-17T20:23:37.793Z,10.96
2023-05-17T20:26:04.517Z,10.92
2023-05-17T20:28:30.928Z,10.83
2023-05-17T20:30:57.433Z,10.76
2023-05-17T20:33:26.675Z,10.76
2023-05-17T20:35:53.759Z,10.75
2023-05-17T20:38:20.486Z,10.68
2023-05-17T20:40:46.989Z,10.61
2023-05-17T20:43:14.379Z,10.43
2023-05-17T20:45:40.859Z,10.42
2023-05-17T20:48:07.501Z,10.43
2023-05-17T20:50:33.980Z,10.44
2023-05-17T20:53:00.451Z,10.37
2023-05-17T20:55:26.862Z,10.29
2023-05-17T20:57:53.352Z,10.16
2023-05-17T21:00:20.830Z,10.15
2023-05-17T21:02:47.520Z,10.18
2023-05-17T21:05:14.111Z,10.16
2023-05-17T21:07:40.565Z,10.14
2023-05-17T21:10:08.091Z,10.10
2023-05-17T21:12:35.082Z,10.04
2023-05-17T21:15:15.890Z,10.03
2023-05-17T21:17:43.420Z,9.96
2023-05-17T21:20:10.429Z,9.95
2023-05-17T21:22:37.460Z,9.90
2023-05-17T21:25:04.323Z,9.69
2023-05-17T21:27:30.798Z,9.54
2023-05-17T21:29:57.226Z,9.58
2023-05-17T21:32:23.678Z,9.53
2023-05-17T21:34:52.104Z,9.55
2023-05-17T21:37:19.311Z,9.42
2023-05-17T21:39:46.126Z,9.52
2023-05-17T21:42:12.515Z,9.49
2023-05-17T21:44:38.914Z,9.44
2023-05-17T21:47:05.733Z,9.38
2023-05-17T21:49:32.305Z,9.26
2023-05-17T21:51:58.764Z,9.27
2023-05-17T21:54:25.686Z,9.17
2023-05-17T21:56:52.246Z,9.12
2023-05-17T21:59:18.685Z,9.05
2023-05-17T22:01:45.355Z,8.97
2023-05-17T22:04:11.928Z,8.93
2023-05-17T22:06:38.319Z,8.88
2023-05-17T22:09:07.258Z,8.84
2023-05-17T22:11:38.214Z,8.74
2023-05-17T22:14:08.077Z,8.68
2023-05-17T22:16:35.733Z,8.61
2023-05-17T22:19:02.261Z,8.56
2023-05-17T22:21:28.760Z,8.54
2023-05-17T22:23:56.075Z,8.50
2023-05-17T22:26:22.800Z,8.45
2023-05-17T22:28:50.501Z,8.47
2023-05-17T22:31:18.465Z,8.49
2023-05-17T22:33:45.479Z,8.43
2023-05-17T22:36:14.776Z,8.44
2023-05-17T22:38:42.633Z,8.38
2023-05-17T22:41:09.990Z,8.30
2023-05-17T22:43:36.551Z,8.25
2023-05-17T22:46:03.488Z,8.10
2023-05-17T22:48:30.439Z,8.07
2023-05-17T22:50:58.744Z,8.04
2023-05-17T22:53:25.567Z,8.02
2023-05-17T22:55:51.989Z,7.99
2023-05-17T22:58:18.556Z,7.96
2023-05-17T23:00:44.982Z,7.92
2023-05-17T23:03:11.723Z,7.88
2023-05-17T23:05:38.180Z,7.84
2023-05-17T23:08:05.535Z,7.77
2023-05-17T23:10:32.051Z,7.73
2023-05-17T23:12:58.482Z,7.69
2023-05-17T23:15:25.909Z,7.67
2023-05-17T23:17:52.917Z,7.61
2023-05-17T23:20:20.057Z,7.42
2023-05-17T23:22:47.797Z,7.38
2023-05-17T23:25:15.605Z,7.30
2023-05-17T23:27:44.360Z,7.28
2023-05-17T23:30:11.413Z,7.28
2023-05-17T23:32:37.960Z,7.24
2023-05-17T23:35:04.984Z,7.22
2023-05-17T23:37:35.152Z,7.18
2023-05-17T23:40:01.760Z,7.14
2023-05-17T23:42:31.720Z,7.12
2023-05-17T23:45:02.139Z,7.06
2023-05-17T23:47:28.673Z,6.99
2023-05-17T23:49:55.470Z,6.94
2023-05-17T23:52:23.582Z,6.92
2023-05-17T23:54:50.058Z,6.85
2023-05-17T23:57:16.465Z,6.78
2023-05-17T23:59:43.091Z,6.75
